Pagrindinis puslapis
METAR-TAF:

METAR-TAF

Oro uostai :

Municipal_Airport

Plimutas, Naujasis Hampšyras, Jungtinės Amerikos Valstijos

platuma: 43-46-45N, ilguma: 071-45-13W, Aukštis: 154 m

Dabartinis oras

Ataskaita buvo paskelbta 21 minutes, ne 06:15 UTC
Vėjas 5 kt iš Vakarų/Pietvakarių su gūsio iki 14 kt
Temperatūra -3°C
Drėgmė 50%
Slėgis 1000 hPa
Matomumas: 16.1 km
Išsisklaidę debesys ne aukštis 5000 ft
Su prošvaistėmis ne aukštis 5500 ft

METAR: K1P1 280615Z AUTO 25005G14KT 10SM SCT050 BKN055 M03/M12 A2953 RMK AO2 T10351118

Laikas: 01:36 (06:36 UTC)


TAF: trūkstamas

Orai ataskaitas ir orų prognozės (METAR, TAF).

turimą stotys yra geltonos ir raudonos taškus žemėlapyje.

Perkelti pele per norėdami pamatyti stoties vardą.

Tada spustelėkite, norėdami matyti oro stebėjimo ir prognozės.

Norėdami pakeisti žemėlapį: spustelėkite ant žalios mygtukų su juodo kryžiaus žemyn,; žalią mygtuką su brūkšneliu, jei norite nutolinti; arba žalių rodyklių gretimoms žemėlapius.


METAR-TAF: